Time;durP1;ratioP1;P1;durP2;ratioP2;P2;SDS_P1;SDS_P2;PMS_P1;PMS_P2;Temp;Humidity;BMP_temperature;BMP_pressure;BME280_temperature;BME280_humidity;BME280_pressure;Samples;Min_cycle;Max_cycle;Signal;HPM_P1;HPM_P2
2022/10/19 00:01:22;;;;;;;2.75;0.20;;;;;;;10.74;47.70;102835.22;4985967;28;20030;-77
2022/10/19 00:03:51;;;;;;;3.60;0.10;;;;;;;10.72;47.38;102834.34;4988500;28;20054;-77
2022/10/19 00:06:29;;;;;;;1.60;0.08;;;;;;;10.75;47.79;102839.53;4983957;28;20037;-77
2022/10/19 00:08:57;;;;;;;2.25;0.40;;;;;;;10.73;47.68;102841.34;4981300;28;20665;-78
2022/10/19 00:11:23;;;;;;;0.95;0.10;;;;;;;10.78;47.83;102834.31;4971987;28;20058;-77
2022/10/19 00:13:50;;;;;;;8.30;0.82;;;;;;;10.82;47.52;102834.28;4981284;28;20046;-77
2022/10/19 00:16:16;;;;;;;0.70;0.13;;;;;;;10.78;47.79;102832.56;4984621;28;20029;-77
2022/10/19 00:18:43;;;;;;;5.05;0.17;;;;;;;10.72;47.88;102826.50;4972433;28;20053;-77
2022/10/19 00:21:12;;;;;;;3.15;0.60;;;;;;;10.51;47.43;102825.81;4987152;28;20038;-78
2022/10/19 00:23:38;;;;;;;1.00;0.10;;;;;;;10.44;48.02;102821.53;4971362;28;20038;-77
2022/10/19 00:26:04;;;;;;;4.35;0.20;;;;;;;10.36;47.96;102824.19;4990753;28;20057;-78
2022/10/19 00:28:29;;;;;;;4.15;0.52;;;;;;;10.36;48.43;102820.72;4968543;28;20041;-78
2022/10/19 00:30:55;;;;;;;5.07;0.13;;;;;;;10.39;48.83;102828.53;4987011;28;20085;-78
2022/10/19 00:33:22;;;;;;;3.33;0.20;;;;;;;10.39;48.83;102831.13;5001354;28;20068;-78
2022/10/19 00:35:49;;;;;;;1.33;0.20;;;;;;;10.44;48.86;102837.22;4996832;28;20036;-78
2022/10/19 00:38:16;;;;;;;1.10;0.10;;;;;;;10.44;49.21;102842.44;4977812;28;20057;-76
2022/10/19 00:40:42;;;;;;;1.65;0.10;;;;;;;10.41;49.09;102845.06;4981568;28;20030;-77
2022/10/19 00:43:22;;;;;;;2.30;0.10;;;;;;;10.41;49.32;102850.31;4985093;28;20115;-77
2022/10/19 00:45:48;;;;;;;1.63;0.15;;;;;;;10.42;49.30;102846.81;5007149;28;20037;-78
2022/10/19 00:48:23;;;;;;;2.63;0.30;;;;;;;10.40;49.19;102851.19;4989634;28;20118;-77
2022/10/19 00:50:53;;;;;;;1.02;0.10;;;;;;;10.34;49.27;102851.22;4994968;28;20040;-78
2022/10/19 00:53:19;;;;;;;6.40;0.47;;;;;;;10.26;49.91;102846.06;4979238;28;20050;-78
2022/10/19 00:55:45;;;;;;;4.70;0.75;;;;;;;10.07;49.93;102849.69;4976461;28;20516;-77
2022/10/19 00:58:12;;;;;;;6.38;0.40;;;;;;;10.03;50.05;102851.44;4982502;28;20090;-78
2022/10/19 01:00:38;;;;;;;4.32;0.30;;;;;;;9.88;50.35;102846.28;4986071;28;20049;-78
2022/10/19 01:03:04;;;;;;;3.65;0.30;;;;;;;9.73;50.72;102853.31;4968746;28;20058;-80
2022/10/19 01:05:32;;;;;;;7.03;1.48;;;;;;;9.59;51.34;102844.69;4982547;28;20018;-79
2022/10/19 01:07:59;;;;;;;13.18;0.32;;;;;;;9.80;50.89;102848.97;4970914;28;20072;-77
2022/10/19 01:10:55;;;;;;;7.43;0.80;;;;;;;9.97;50.20;102851.50;4969927;28;20099;-77
2022/10/19 01:13:57;;;;;;;9.45;0.70;;;;;;;9.86;49.18;102854.16;4968167;28;20601;-77
2022/10/19 01:16:36;;;;;;;6.50;0.65;;;;;;;9.92;48.55;102848.91;4977671;28;20026;-79
2022/10/19 01:19:14;;;;;;;6.82;0.50;;;;;;;9.82;48.31;102854.19;4977873;28;20387;-80
2022/10/19 01:22:10;;;;;;;3.83;0.50;;;;;;;9.85;47.28;102859.38;4985578;28;20088;-76
2022/10/19 01:24:50;;;;;;;3.92;0.65;;;;;;;9.73;47.19;102861.16;4988359;28;20034;-79
2022/10/19 01:28:07;;;;;;;4.63;0.47;;;;;;;9.70;46.53;102862.91;5000884;28;20046;-76
2022/10/19 01:31:00;;;;;;;9.10;0.90;;;;;;;9.65;46.12;102869.88;4947599;28;20038;-77
2022/10/19 01:33:31;;;;;;;11.55;1.52;;;;;;;9.62;46.06;102865.56;4967455;28;20038;-78
2022/10/19 01:36:31;;;;;;;12.70;1.08;;;;;;;9.64;45.89;102874.25;4966942;28;20095;-78
2022/10/19 01:39:17;;;;;;;7.47;0.30;;;;;;;9.47;46.16;102868.22;4976443;28;20168;-77
2022/10/19 01:41:52;;;;;;;6.75;0.40;;;;;;;9.47;46.02;102863.00;4964339;28;20478;-79
2022/10/19 01:44:30;;;;;;;3.08;0.50;;;;;;;9.34;46.50;102870.88;5001281;28;20030;-78
2022/10/19 01:47:05;;;;;;;4.57;0.52;;;;;;;9.33;46.27;102871.75;4972128;28;20057;-77
2022/10/19 01:49:42;;;;;;;5.18;0.85;;;;;;;9.34;46.44;102860.44;5000251;28;20340;-77
2022/10/19 01:52:12;;;;;;;12.80;0.82;;;;;;;9.35;46.06;102867.38;4982541;28;20045;-77
2022/10/19 01:54:41;;;;;;;6.85;0.95;;;;;;;9.52;45.27;102858.63;4983847;28;20030;-77
2022/10/19 01:57:10;;;;;;;11.30;1.27;;;;;;;9.40;45.49;102863.00;4981719;28;20046;-77
2022/10/19 01:59:37;;;;;;;14.93;0.65;;;;;;;9.43;45.09;102863.88;4962802;28;20072;-80
2022/10/19 02:02:05;;;;;;;7.60;0.30;;;;;;;9.50;45.14;102862.97;4975550;28;20065;-77
2022/10/19 02:04:33;;;;;;;7.75;0.43;;;;;;;9.51;45.34;102862.97;4987211;28;20226;-78
2022/10/19 02:07:01;;;;;;;6.82;0.30;;;;;;;9.59;45.06;102860.34;4984650;28;20266;-78
2022/10/19 02:09:27;;;;;;;7.75;0.50;;;;;;;9.77;44.55;102849.81;4980010;28;20084;-78
2022/10/19 02:11:59;;;;;;;5.78;0.35;;;;;;;9.80;45.07;102856.78;4997231;28;20049;-78
2022/10/19 02:14:31;;;;;;;7.03;0.73;;;;;;;9.77;44.68;102844.59;4979725;28;20113;-78
2022/10/19 02:17:13;;;;;;;5.78;0.40;;;;;;;9.76;45.11;102845.44;4973831;28;20573;-77
2022/10/19 02:19:39;;;;;;;16.92;0.73;;;;;;;9.80;44.96;102849.81;4968673;28;20853;-79
2022/10/19 02:22:06;;;;;;;3.25;0.77;;;;;;;9.70;45.28;102852.44;4983262;28;20092;-77
2022/10/19 02:24:31;;;;;;;4.15;0.30;;;;;;;9.65;45.58;102839.41;4973180;28;20066;-77
2022/10/19 02:26:59;;;;;;;6.22;0.40;;;;;;;9.57;45.94;102851.66;4976660;28;20089;-78
2022/10/19 02:29:25;;;;;;;3.80;0.40;;;;;;;9.60;46.31;102849.03;5008514;28;20022;-78
2022/10/19 02:31:51;;;;;;;4.60;0.40;;;;;;;9.64;46.57;102847.28;4972038;28;20030;-80
2022/10/19 02:34:17;;;;;;;2.00;0.50;;;;;;;9.67;46.30;102853.34;4979613;28;20123;-78
2022/10/19 02:36:43;;;;;;;9.75;0.55;;;;;;;9.71;46.40;102854.22;4986303;28;20030;-78
2022/10/19 02:39:09;;;;;;;5.78;0.40;;;;;;;9.88;46.03;102844.56;4982434;28;20048;-77
2022/10/19 02:41:44;;;;;;;3.55;0.32;;;;;;;9.97;45.61;102849.75;4968174;28;20478;-77
2022/10/19 02:44:21;;;;;;;5.25;0.17;;;;;;;10.00;45.71;102848.84;4981437;28;20116;-77
2022/10/19 02:47:16;;;;;;;4.07;0.15;;;;;;;9.95;45.96;102853.25;4979116;28;20484;-79
2022/10/19 02:49:43;;;;;;;7.97;1.10;;;;;;;10.00;46.14;102854.06;4982640;28;20058;-77
2022/10/19 02:52:10;;;;;;;6.88;0.32;;;;;;;9.97;46.08;102849.75;4999759;28;20088;-77
2022/10/19 02:54:37;;;;;;;6.25;0.68;;;;;;;9.78;46.49;102851.53;4969362;28;20037;-77
2022/10/19 02:57:31;;;;;;;7.95;0.22;;;;;;;9.82;46.49;102854.19;4984301;28;20038;-77
2022/10/19 02:59:57;;;;;;;5.18;0.55;;;;;;;9.83;46.14;102862.00;4984479;28;20096;-76
2022/10/19 03:02:23;;;;;;;4.18;1.25;;;;;;;9.89;46.91;102856.75;4969175;28;20045;-77
2022/10/19 03:04:48;;;;;;;6.93;0.82;;;;;;;9.93;46.87;102855.00;4998600;28;20038;-77
2022/10/19 03:07:17;;;;;;;7.20;0.40;;;;;;;9.96;46.86;102855.81;4972200;28;20064;-77
2022/10/19 03:09:43;;;;;;;7.75;1.83;;;;;;;10.05;46.94;102856.66;5004034;28;20541;-78
2022/10/19 03:12:11;;;;;;;3.00;0.38;;;;;;;10.16;46.84;102857.47;4985338;28;20034;-77
2022/10/19 03:14:36;;;;;;;6.57;1.00;;;;;;;10.25;46.09;102861.75;4981860;28;20104;-78
2022/10/19 03:17:02;;;;;;;6.85;0.20;;;;;;;10.24;46.35;102855.66;4985682;28;20050;-78
2022/10/19 03:19:28;;;;;;;3.78;0.25;;;;;;;10.18;46.66;102853.94;5011150;23;20083;-72
2022/10/19 03:21:56;;;;;;;11.10;0.40;;;;;;;10.02;46.84;102858.41;5021431;28;20441;-72
2022/10/19 03:24:24;;;;;;;7.32;0.90;;;;;;;9.88;46.37;102859.34;5005386;28;20037;-72
2022/10/19 03:26:50;;;;;;;7.40;1.05;;;;;;;10.10;45.92;102857.50;5012389;28;20032;-71
2022/10/19 03:29:15;;;;;;;10.15;0.95;;;;;;;10.06;45.85;102851.44;5020842;28;20044;-72
2022/10/19 03:31:42;;;;;;;12.25;0.70;;;;;;;9.94;46.01;102854.09;5038604;28;20437;-71
2022/10/19 03:34:10;;;;;;;8.23;0.60;;;;;;;9.85;45.97;102860.25;5039159;28;20289;-71
2022/10/19 03:36:37;;;;;;;1.77;0.20;;;;;;;10.17;45.54;102847.00;5038837;28;20509;-71
2022/10/19 03:39:10;;;;;;;8.25;0.55;;;;;;;10.06;45.64;102846.22;5037577;28;20883;-71
2022/10/19 03:41:36;;;;;;;6.10;0.57;;;;;;;9.95;46.28;102848.03;5020224;28;20037;-72
2022/10/19 03:44:03;;;;;;;8.25;0.32;;;;;;;10.10;45.83;102857.50;5021354;28;20384;-72
2022/10/19 03:46:28;;;;;;;6.93;0.30;;;;;;;10.28;45.22;102856.50;5011102;28;20052;-71
2022/10/19 03:48:54;;;;;;;7.00;0.25;;;;;;;10.30;45.23;102852.13;4994473;28;20535;-72
2022/10/19 03:51:25;;;;;;;4.75;0.30;;;;;;;10.28;45.61;102857.38;5021307;28;20033;-71
2022/10/19 03:53:56;;;;;;;4.57;0.20;;;;;;;10.31;45.59;102852.13;5019542;28;20406;-72
2022/10/19 03:56:23;;;;;;;7.20;0.80;;;;;;;10.37;45.74;102852.09;5020606;28;20242;-71
2022/10/19 03:58:50;;;;;;;3.17;0.57;;;;;;;10.31;46.17;102851.25;5019684;28;20033;-72
2022/10/19 04:01:19;;;;;;;1.17;0.10;;;;;;;10.37;46.12;102856.41;5009444;28;20161;-71
2022/10/19 04:03:45;;;;;;;8.27;0.70;;;;;;;10.47;45.98;102854.63;5038025;28;20043;-71
2022/10/19 04:06:15;;;;;;;4.50;0.20;;;;;;;10.41;46.02;102851.19;5037381;28;20108;-72
2022/10/19 04:08:41;;;;;;;8.07;0.30;;;;;;;10.40;46.41;102853.81;5026696;28;20037;-72
2022/10/19 04:11:14;;;;;;;4.45;0.10;;;;;;;10.33;46.53;102849.50;5020252;28;20094;-72
2022/10/19 04:13:39;;;;;;;6.30;0.57;;;;;;;10.36;46.74;102862.53;4961732;28;20510;-73
2022/10/19 04:16:06;;;;;;;5.35;0.30;;;;;;;10.40;46.54;102848.56;5011318;28;20090;-71
2022/10/19 04:18:31;;;;;;;2.47;0.10;;;;;;;10.44;46.51;102852.91;5035664;28;20132;-71
2022/10/19 04:21:03;;;;;;;4.55;0.52;;;;;;;10.41;46.99;102858.13;5037530;28;20059;-71
2022/10/19 04:23:33;;;;;;;6.53;0.30;;;;;;;10.25;47.55;102856.53;5019810;28;20041;-71
2022/10/19 04:26:02;;;;;;;7.03;0.32;;;;;;;10.10;48.32;102863.59;5038312;28;20041;-73
2022/10/19 04:28:29;;;;;;;2.47;0.30;;;;;;;10.13;48.23;102865.31;5019570;28;20481;-71
2022/10/19 04:30:54;;;;;;;11.90;0.40;;;;;;;10.07;48.62;102868.84;5038213;28;20509;-71
2022/10/19 04:33:20;;;;;;;6.45;0.32;;;;;;;10.14;48.28;102869.66;5036790;28;20048;-73
2022/10/19 04:35:45;;;;;;;1.42;0.50;;;;;;;10.13;48.17;102874.03;5003059;28;20047;-71
2022/10/19 04:38:13;;;;;;;3.08;0.13;;;;;;;10.15;48.03;102869.66;5036203;28;20032;-71
2022/10/19 04:40:38;;;;;;;7.53;0.65;;;;;;;10.11;48.01;102873.16;5019779;28;20028;-71
2022/10/19 04:43:06;;;;;;;7.38;0.30;;;;;;;10.13;48.07;102871.41;5018280;28;20397;-71
2022/10/19 04:45:36;;;;;;;1.95;0.20;;;;;;;10.12;48.14;102877.50;5037691;28;20664;-72
2022/10/19 04:48:01;;;;;;;7.10;0.30;;;;;;;10.20;48.13;102880.09;5011276;28;20102;-71
2022/10/19 04:50:27;;;;;;;4.10;0.22;;;;;;;10.33;47.90;102878.25;5038198;28;20036;-72
2022/10/19 04:52:54;;;;;;;5.95;0.63;;;;;;;10.33;47.71;102881.75;5017992;28;20043;-71
2022/10/19 04:55:19;;;;;;;8.13;0.73;;;;;;;10.37;47.51;102882.56;5027928;28;20021;-71
2022/10/19 04:57:45;;;;;;;2.58;0.50;;;;;;;10.37;47.93;102886.06;4999768;28;20509;-72
2022/10/19 05:00:11;;;;;;;5.80;0.40;;;;;;;10.39;47.98;102886.03;5038396;28;20033;-72
2022/10/19 05:02:41;;;;;;;2.08;0.40;;;;;;;10.39;48.27;102881.69;5036156;28;20051;-72
2022/10/19 05:05:07;;;;;;;6.60;0.20;;;;;;;10.36;48.00;102886.06;5020269;28;20620;-72
2022/10/19 05:07:33;;;;;;;7.00;0.57;;;;;;;10.35;48.20;102887.81;5038290;28;20048;-71
2022/10/19 05:10:01;;;;;;;5.93;0.63;;;;;;;10.18;48.46;102882.69;5038752;28;20075;-71
2022/10/19 05:12:28;;;;;;;5.53;1.00;;;;;;;9.83;48.18;102876.81;5011030;28;20044;-71
2022/10/19 05:14:54;;;;;;;4.95;0.35;;;;;;;10.10;47.37;102884.50;5011922;28;20417;-71
2022/10/19 05:17:19;;;;;;;4.38;0.68;;;;;;;10.10;46.91;102881.91;5021506;28;20051;-72
2022/10/19 05:19:45;;;;;;;8.30;0.60;;;;;;;9.89;47.35;102871.56;5019889;28;20486;-71
2022/10/19 05:22:10;;;;;;;3.53;0.30;;;;;;;9.92;47.19;102869.81;5020381;28;20082;-71
2022/10/19 05:24:35;;;;;;;5.70;0.10;;;;;;;9.81;47.19;102868.97;5004643;28;20032;-70
2022/10/19 05:27:01;;;;;;;5.70;0.65;;;;;;;9.92;47.25;102874.13;5028150;28;20414;-71
2022/10/19 05:29:27;;;;;;;6.47;0.20;;;;;;;10.05;46.48;102873.19;5021371;28;20049;-71
2022/10/19 05:31:52;;;;;;;8.23;0.55;;;;;;;9.96;46.30;102861.06;5036969;28;20563;-71
2022/10/19 05:34:20;;;;;;;7.85;0.80;;;;;;;9.90;45.55;102865.44;5037798;28;20037;-71
2022/10/19 05:36:46;;;;;;;5.38;0.50;;;;;;;10.14;45.14;102854.84;5016755;28;20029;-71
2022/10/19 05:39:14;;;;;;;10.35;1.02;;;;;;;10.28;44.92;102848.66;5038098;28;20041;-71
2022/10/19 05:41:43;;;;;;;4.95;0.32;;;;;;;10.35;44.76;102845.16;5000695;28;20037;-71
2022/10/19 05:44:14;;;;;;;8.18;0.30;;;;;;;10.39;44.85;102842.50;5009189;28;20252;-73
2022/10/19 05:46:39;;;;;;;3.88;0.17;;;;;;;10.24;45.49;102845.22;5008348;28;20887;-70
2022/10/19 05:49:05;;;;;;;6.03;0.75;;;;;;;10.42;45.09;102844.22;5036371;28;20040;-71
2022/10/19 05:51:30;;;;;;;1.63;0.50;;;;;;;10.45;45.24;102838.94;5035501;28;20036;-71
2022/10/19 05:53:56;;;;;;;10.35;0.77;;;;;;;10.48;45.03;102838.94;5021529;28;20047;-71
2022/10/19 05:56:26;;;;;;;5.65;0.30;;;;;;;10.46;45.24;102840.69;5042880;28;20017;-71
2022/10/19 05:58:55;;;;;;;6.03;0.38;;;;;;;10.48;45.10;102832.81;5002966;28;20041;-71
2022/10/19 06:01:21;;;;;;;7.38;0.50;;;;;;;10.39;45.75;102832.03;5040784;28;20029;-71
2022/10/19 06:03:52;;;;;;;4.82;0.57;;;;;;;10.33;45.80;102834.69;5039043;28;20048;-71
2022/10/19 06:06:21;;;;;;;6.10;0.88;;;;;;;10.28;46.12;102835.59;5005954;28;20033;-71
2022/10/19 06:08:47;;;;;;;4.22;0.52;;;;;;;10.40;46.06;102840.75;5030286;28;20509;-72
2022/10/19 06:11:19;;;;;;;7.47;0.10;;;;;;;10.45;45.72;102844.16;5023371;28;20041;-71
2022/10/19 06:13:46;;;;;;;3.45;0.20;;;;;;;10.49;45.71;102850.25;5021638;28;20182;-71
2022/10/19 06:16:14;;;;;;;10.27;0.52;;;;;;;10.44;45.93;102858.13;5024104;28;20050;-71
2022/10/19 06:18:42;;;;;;;3.42;0.30;;;;;;;10.54;45.94;102859.78;5038435;28;20044;-70
2022/10/19 06:21:14;;;;;;;10.73;0.63;;;;;;;10.59;45.54;102863.25;5040034;28;20120;-71
2022/10/19 06:23:40;;;;;;;;;;;;;;;10.57;45.86;102872.84;5039474;28;20541;-71
2022/10/19 06:26:09;;;;;;;4.03;0.50;;;;;;;10.53;46.18;102868.53;5041331;28;19965;-71
2022/10/19 06:28:35;;;;;;;5.53;0.30;;;;;;;10.59;46.18;102873.72;5037972;28;20119;-71
2022/10/19 06:31:01;;;;;;;6.82;0.30;;;;;;;10.60;46.06;102869.34;5041018;28;20040;-71
2022/10/19 06:33:30;;;;;;;6.20;0.22;;;;;;;10.78;46.10;102871.78;5021180;28;20889;-71
2022/10/19 06:36:07;;;;;;;2.90;0.40;;;;;;;10.82;45.81;102875.28;5015085;28;20477;-72
2022/10/19 06:38:35;;;;;;;7.15;0.65;;;;;;;10.86;46.18;102876.09;5012030;28;20611;-71
2022/10/19 06:41:00;;;;;;;4.57;0.32;;;;;;;10.80;46.57;102882.25;5021482;28;20040;-71
2022/10/19 06:43:28;;;;;;;5.47;0.22;;;;;;;10.84;46.51;102879.63;5038589;28;20044;-71
2022/10/19 06:45:56;;;;;;;9.63;0.50;;;;;;;10.82;46.76;102880.50;5022637;28;20033;-70
2022/10/19 06:48:22;;;;;;;6.70;1.08;;;;;;;10.78;47.27;102884.00;5039102;28;20052;-71
2022/10/19 06:50:58;;;;;;;5.07;0.60;;;;;;;10.81;47.05;102891.81;5039693;28;20039;-72
2022/10/19 06:53:24;;;;;;;3.20;0.73;;;;;;;10.89;47.19;102897.88;5022094;28;20037;-70
2022/10/19 06:55:50;;;;;;;5.75;0.30;;;;;;;10.90;46.92;102901.34;5021482;28;21163;-70
2022/10/19 06:58:15;;;;;;;8.68;0.50;;;;;;;10.84;46.48;102899.69;5013724;28;20565;-73
2022/10/19 07:00:41;;;;;;;6.32;0.17;;;;;;;10.82;46.27;102896.22;5004766;28;20102;-72
2022/10/19 07:03:06;;;;;;;5.32;0.47;;;;;;;10.86;46.04;102902.25;5021259;28;20049;-71
2022/10/19 07:05:32;;;;;;;10.10;0.50;;;;;;;10.69;45.14;102899.78;5035899;28;20037;-71
2022/10/19 07:07:57;;;;;;;9.60;0.50;;;;;;;10.84;44.27;102904.91;5038676;28;20053;-71
2022/10/19 07:10:25;;;;;;;8.95;0.82;;;;;;;10.81;44.32;102905.78;5039589;28;20033;-70
2022/10/19 07:12:50;;;;;;;3.42;0.65;;;;;;;10.97;43.08;102911.78;5020794;28;20056;-72
2022/10/19 07:15:16;;;;;;;7.10;0.30;;;;;;;11.12;43.06;102915.13;5021922;28;20044;-71
2022/10/19 07:17:41;;;;;;;1.77;0.20;;;;;;;11.20;42.44;102913.28;5011121;28;20207;-71
2022/10/19 07:20:07;;;;;;;3.08;0.30;;;;;;;11.10;42.87;102916.88;5039998;28;20037;-72
2022/10/19 07:22:33;;;;;;;6.32;0.30;;;;;;;11.24;42.31;102915.88;5019071;28;20084;-71
2022/10/19 07:24:58;;;;;;;6.38;0.52;;;;;;;11.29;41.80;102922.81;5007026;28;20044;-71
2022/10/19 07:27:24;;;;;;;4.40;0.40;;;;;;;11.31;41.21;102921.91;5020060;28;20044;-72
2022/10/19 07:29:49;;;;;;;7.80;0.50;;;;;;;11.25;41.00;102924.56;5038890;28;20040;-71
2022/10/19 07:32:17;;;;;;;4.13;0.60;;;;;;;11.37;40.55;102924.44;5020514;28;20465;-70
2022/10/19 07:34:42;;;;;;;8.18;0.25;;;;;;;11.43;40.51;102926.13;5022113;28;20040;-71
2022/10/19 07:37:08;;;;;;;4.22;0.17;;;;;;;11.52;40.75;102914.69;5013058;28;20057;-71
2022/10/19 07:39:33;;;;;;;4.15;0.17;;;;;;;11.67;40.51;102917.13;5038230;28;20034;-71
2022/10/19 07:41:59;;;;;;;7.63;0.60;;;;;;;11.71;40.40;102917.94;5021817;28;20521;-71
2022/10/19 07:44:26;;;;;;;6.47;0.30;;;;;;;11.76;40.71;102917.00;5039248;28;20029;-73
2022/10/19 07:46:52;;;;;;;3.70;0.28;;;;;;;11.84;41.00;102922.19;5021775;28;20106;-71
2022/10/19 07:49:18;;;;;;;2.38;0.20;;;;;;;11.92;40.80;102929.97;5022641;28;20037;-72
2022/10/19 07:51:45;;;;;;;2.42;0.20;;;;;;;11.87;41.51;102932.63;5012604;28;20313;-70
2022/10/19 07:54:12;;;;;;;6.55;0.82;;;;;;;11.83;41.33;102929.19;5038789;28;20041;-71
2022/10/19 07:56:38;;;;;;;10.00;0.43;;;;;;;11.86;41.15;102926.50;5019749;28;20061;-72
2022/10/19 07:59:06;;;;;;;6.03;0.30;;;;;;;11.95;41.17;102925.53;5039056;28;20312;-71
2022/10/19 08:01:40;;;;;;;9.85;0.38;;;;;;;12.03;41.26;102928.91;5037967;28;20029;-72
2022/10/19 08:04:06;;;;;;;8.48;0.63;;;;;;;12.14;41.01;102914.81;5020603;28;20044;-71
2022/10/19 08:06:31;;;;;;;2.72;0.25;;;;;;;12.15;40.54;102917.38;5037082;28;20102;-72
2022/10/19 08:08:57;;;;;;;4.93;0.30;;;;;;;12.28;39.83;102923.31;5021652;28;20214;-72
2022/10/19 08:11:29;;;;;;;6.40;0.63;;;;;;;12.40;39.86;102924.91;5038973;28;20090;-71
2022/10/19 08:13:54;;;;;;;;;;;;;;;12.28;40.01;102929.44;5039656;28;20071;-71
2022/10/19 08:16:28;;;;;;;5.82;0.55;;;;;;;12.35;40.25;102932.84;5020260;28;21182;-71
2022/10/19 08:18:58;;;;;;;4.05;0.35;;;;;;;12.22;39.70;102939.13;5038460;28;20053;-71
2022/10/19 08:21:25;;;;;;;6.20;0.80;;;;;;;12.08;39.43;102941.97;5020399;28;20528;-71
2022/10/19 08:23:53;;;;;;;3.90;0.20;;;;;;;12.06;39.01;102936.72;5037118;28;20056;-72
2022/10/19 08:26:20;;;;;;;2.97;0.52;;;;;;;12.10;38.12;102931.47;5037204;28;20047;-70
2022/10/19 08:28:45;;;;;;;2.53;0.35;;;;;;;11.93;38.95;102929.06;5002515;28;20163;-71
2022/10/19 08:31:19;;;;;;;4.60;0.13;;;;;;;12.18;38.98;102925.22;5038969;28;20041;-70
2022/10/19 08:33:45;;;;;;;1.08;0.13;;;;;;;12.32;38.55;102921.53;5036893;28;20029;-71
2022/10/19 08:36:12;;;;;;;8.52;0.25;;;;;;;12.19;38.60;102932.19;5038771;28;20496;-71
2022/10/19 08:38:43;;;;;;;7.95;0.63;;;;;;;12.29;38.96;102931.19;5036696;28;20044;-73
2022/10/19 08:41:35;;;;;;;4.30;0.30;;;;;;;12.43;38.59;102932.75;5012169;28;20033;-72
2022/10/19 08:44:19;;;;;;;1.48;0.35;;;;;;;12.58;39.12;102927.25;5037911;28;20041;-71
2022/10/19 08:46:56;;;;;;;6.60;0.50;;;;;;;12.76;38.84;102935.72;5035491;28;20099;-71
2022/10/19 08:49:24;;;;;;;5.25;0.30;;;;;;;12.88;37.95;102932.91;4998011;28;20478;-72
2022/10/19 08:51:59;;;;;;;6.95;0.60;;;;;;;12.85;38.07;102936.47;5018648;28;20076;-71
2022/10/19 08:54:39;;;;;;;1.83;0.20;;;;;;;13.00;38.04;102930.06;5016687;28;20036;-71
2022/10/19 08:57:54;;;;;;;4.22;0.63;;;;;;;13.06;38.36;102929.97;5018223;28;20048;-72
2022/10/19 09:00:37;;;;;;;6.28;0.70;;;;;;;13.11;38.27;102928.09;4971947;28;20384;-72
2022/10/19 09:03:22;;;;;;;2.90;0.20;;;;;;;13.09;38.75;102929.03;5038573;28;20378;-71
2022/10/19 09:06:03;;;;;;;2.72;0.10;;;;;;;12.96;38.43;102925.78;5037543;28;20032;-71
2022/10/19 09:08:29;;;;;;;5.03;0.35;;;;;;;13.00;38.71;102923.94;5036505;28;20045;-72
2022/10/19 09:10:56;;;;;;;6.15;0.20;;;;;;;13.11;38.52;102927.25;5038606;28;20037;-72
2022/10/19 09:13:40;;;;;;;5.28;0.57;;;;;;;13.22;38.53;102927.06;5020000;28;20139;-72
2022/10/19 09:16:11;;;;;;;7.72;0.47;;;;;;;13.16;39.26;102924.53;5012050;28;20043;-74
2022/10/19 09:18:39;;;;;;;5.60;0.28;;;;;;;13.33;38.42;102925.09;5036106;28;20459;-71
2022/10/19 09:21:24;;;;;;;5.07;0.20;;;;;;;13.32;37.47;102931.25;5004640;28;20082;-71
2022/10/19 09:24:04;;;;;;;2.70;0.32;;;;;;;13.36;36.97;102919.81;5036776;28;20569;-72
2022/10/19 09:26:58;;;;;;;2.95;0.40;;;;;;;13.89;37.50;102915.22;5019677;28;20040;-72
2022/10/19 09:29:48;;;;;;;4.43;0.65;;;;;;;14.23;36.77;102917.13;5035771;28;20052;-71
2022/10/19 09:32:23;;;;;;;7.70;0.63;;;;;;;14.33;36.92;102913.34;5040476;28;20037;-72
2022/10/19 09:34:59;;;;;;;4.72;0.28;;;;;;;14.60;36.87;102915.41;5042677;28;20496;-71
2022/10/19 09:37:25;;;;;;;1.52;0.20;;;;;;;15.13;35.20;102915.78;5038901;28;20080;-71
2022/10/19 09:39:51;;;;;;;2.65;0.13;;;;;;;14.93;34.92;102904.00;5023926;28;20083;-71
2022/10/19 09:42:29;;;;;;;3.45;0.50;;;;;;;14.88;35.07;102899.75;5022116;28;20130;-72
2022/10/19 09:44:59;;;;;;;3.88;0.73;;;;;;;14.77;34.55;102907.94;5034015;28;20044;-73
2022/10/19 09:47:32;;;;;;;6.72;0.30;;;;;;;14.61;35.27;102907.44;5022083;28;20063;-72
2022/10/19 09:50:18;;;;;;;5.13;0.30;;;;;;;14.56;35.61;102904.06;5024655;28;20048;-71
2022/10/19 09:52:45;;;;;;;5.57;0.65;;;;;;;14.03;35.83;102908.78;5022031;28;20103;-71
2022/10/19 09:55:18;;;;;;;9.40;0.40;;;;;;;13.97;36.36;102908.94;5041909;28;20037;-71
2022/10/19 09:57:48;;;;;;;4.25;0.50;;;;;;;14.11;36.77;102901.59;5038894;28;20044;-71
2022/10/19 10:00:23;;;;;;;4.07;0.55;;;;;;;14.56;35.79;102906.69;5006569;28;20033;-71
2022/10/19 10:02:55;;;;;;;3.28;0.40;;;;;;;14.56;36.44;102912.81;5040392;28;20051;-71
2022/10/19 10:05:38;;;;;;;7.00;0.10;;;;;;;14.57;35.86;102916.34;5041348;28;20064;-71
2022/10/19 10:08:16;;;;;;;2.22;0.32;;;;;;;14.72;35.58;102901.91;5041490;28;20132;-71
2022/10/19 10:10:55;;;;;;;3.95;0.30;;;;;;;14.69;36.17;102902.00;5040366;28;20045;-71
2022/10/19 10:13:26;;;;;;;9.27;0.43;;;;;;;14.31;36.49;102902.00;5024770;28;20048;-71
2022/10/19 10:16:00;;;;;;;4.80;0.25;;;;;;;14.10;36.90;102897.25;5012828;28;20036;-72
2022/10/19 10:18:27;;;;;;;7.13;0.83;;;;;;;14.27;35.77;102900.34;5041733;28;20032;-71
2022/10/19 10:20:59;;;;;;;8.32;0.43;;;;;;;14.29;36.50;102895.91;5026549;28;20374;-71
2022/10/19 10:23:29;;;;;;;4.40;0.57;;;;;;;13.92;36.85;102902.03;5043736;28;20068;-72
2022/10/19 10:25:56;;;;;;;9.95;0.35;;;;;;;13.89;35.23;102895.97;5042772;28;20095;-71
2022/10/19 10:28:24;;;;;;;6.20;0.32;;;;;;;13.89;35.62;102890.69;5045786;28;20093;-71
2022/10/19 10:30:59;;;;;;;3.95;0.20;;;;;;;14.06;36.17;102891.19;5047566;28;20037;-71
2022/10/19 10:33:27;;;;;;;2.53;0.30;;;;;;;15.07;34.09;102900.13;5017494;28;20700;-71
2022/10/19 10:36:08;;;;;;;5.50;0.10;;;;;;;16.39;34.05;102891.00;5025591;28;20040;-71
2022/10/19 10:39:04;;;;;;;3.63;0.20;;;;;;;16.91;31.15;102896.31;5039770;28;20029;-71
2022/10/19 10:41:35;;;;;;;7.40;0.10;;;;;;;16.68;31.70;102886.53;5021670;28;20437;-70
2022/10/19 10:44:14;;;;;;;3.42;0.20;;;;;;;16.19;31.91;102883.72;5022751;28;20076;-72
2022/10/19 10:46:57;;;;;;;1.00;0.10;;;;;;;15.61;33.30;102882.84;5022698;28;20516;-71
2022/10/19 10:49:26;;;;;;;2.85;0.20;;;;;;;15.07;33.51;102887.84;5021925;28;20039;-73
2022/10/19 10:52:00;;;;;;;4.00;0.30;;;;;;;14.80;34.93;102893.84;5040993;28;20079;-71
2022/10/19 10:54:26;;;;;;;;;;;;;;;15.45;33.66;102887.72;5039275;28;20139;-74
2022/10/19 10:57:19;;;;;;;5.55;0.32;;;;;;;15.92;31.64;102878.38;5023493;28;20006;-71
2022/10/19 10:59:52;;;;;;;5.68;0.65;;;;;;;16.55;31.09;102876.34;5003018;28;20041;-72
2022/10/19 11:02:38;;;;;;;0.95;0.25;;;;;;;16.46;30.82;102865.25;5039004;28;20071;-72
2022/10/19 11:05:18;;;;;;;2.90;0.20;;;;;;;16.96;31.14;102870.63;5023340;28;20520;-73
2022/10/19 11:08:02;;;;;;;4.93;0.60;;;;;;;16.83;30.11;102865.75;5036583;28;20059;-71
2022/10/19 11:10:34;;;;;;;3.90;0.20;;;;;;;17.13;29.57;102856.78;5020828;28;20041;-73
2022/10/19 11:13:15;;;;;;;2.03;0.10;;;;;;;16.81;29.13;102858.81;5021882;28;20477;-71
2022/10/19 11:15:50;;;;;;;1.95;0.10;;;;;;;16.79;30.33;102842.16;5039312;28;20732;-71
2022/10/19 11:18:50;;;;;;;1.08;0.20;;;;;;;16.61;30.41;102843.63;5022198;28;20037;-70
2022/10/19 11:21:22;;;;;;;3.17;0.10;;;;;;;16.60;30.63;102841.91;5040090;28;20037;-72
2022/10/19 11:24:06;;;;;;;3.65;0.20;;;;;;;16.44;30.39;102840.69;5016602;28;20045;-71
2022/10/19 11:26:40;;;;;;;4.22;0.15;;;;;;;16.59;30.95;102840.16;5040199;28;20702;-71
2022/10/19 11:29:21;;;;;;;3.42;0.10;;;;;;;16.94;30.61;102835.47;5028455;28;20528;-73
2022/10/19 11:31:53;;;;;;;1.58;0.10;;;;;;;17.11;30.55;102826.91;5012447;28;20298;-71
2022/10/19 11:34:46;;;;;;;2.53;0.10;;;;;;;17.78;29.23;102818.19;5037881;28;20115;-71
2022/10/19 11:37:30;;;;;;;6.22;0.20;;;;;;;17.78;28.63;102810.25;5004058;28;20037;-71
2022/10/19 11:40:12;;;;;;;4.63;0.20;;;;;;;17.74;28.72;102803.38;5001366;28;20439;-70
2022/10/19 11:42:57;;;;;;;0.70;0.10;;;;;;;18.11;30.02;102804.53;5038015;28;20047;-70
2022/10/19 11:45:41;;;;;;;3.72;0.20;;;;;;;17.13;29.82;102804.78;5040249;28;20063;-71